createdAt,value
2019-05-16T00:00:49.610Z,9.80
2019-05-16T00:03:19.254Z,8.48
2019-05-16T00:05:54.120Z,8.88
2019-05-16T00:08:20.057Z,9.98
2019-05-16T00:10:49.530Z,9.10
2019-05-16T00:13:19.196Z,8.90
2019-05-16T00:15:48.712Z,10.25
2019-05-16T00:18:18.201Z,11.38
2019-05-16T00:20:49.238Z,9.55
2019-05-16T00:23:19.010Z,9.28
2019-05-16T00:25:48.515Z,9.53
2019-05-16T00:28:18.217Z,10.88
2019-05-16T00:30:48.745Z,7.57
2019-05-16T00:33:18.545Z,8.90
2019-05-16T00:35:48.232Z,10.40
2019-05-16T00:38:19.259Z,7.20
2019-05-16T00:40:48.839Z,8.43
2019-05-16T00:43:18.507Z,9.90
2019-05-16T00:45:49.541Z,11.43
2019-05-16T00:48:19.063Z,8.40
2019-05-16T00:50:48.603Z,10.33
2019-05-16T00:53:18.362Z,11.63
2019-05-16T00:55:48.103Z,8.43
2019-05-16T00:58:18.996Z,9.57
2019-05-16T01:00:50.318Z,8.37
2019-05-16T01:03:20.537Z,14.53
2019-05-16T01:05:50.111Z,10.17
2019-05-16T01:08:19.779Z,9.87
2019-05-16T01:10:51.408Z,12.57
2019-05-16T01:13:20.631Z,10.67
2019-05-16T01:15:50.198Z,9.57
2019-05-16T01:18:19.654Z,10.48
2019-05-16T01:20:49.186Z,10.60
2019-05-16T01:23:18.848Z,7.60
2019-05-16T01:25:48.656Z,9.17
2019-05-16T01:28:18.812Z,8.37
2019-05-16T01:30:49.580Z,10.25
2019-05-16T01:33:19.505Z,12.30
2019-05-16T01:35:49.048Z,10.17
2019-05-16T01:38:18.691Z,15.40
2019-05-16T01:40:49.219Z,11.47
2019-05-16T01:43:19.065Z,9.90
2019-05-16T01:45:48.933Z,15.13
2019-05-16T01:48:19.299Z,13.07
2019-05-16T01:50:49.024Z,14.03
2019-05-16T01:53:18.519Z,13.50
2019-05-16T01:55:48.794Z,14.07
2019-05-16T01:58:20.369Z,11.33
2019-05-16T02:01:02.650Z,12.57
2019-05-16T02:03:21.221Z,10.07
2019-05-16T02:05:50.826Z,13.33
2019-05-16T02:08:20.423Z,11.00
2019-05-16T02:10:49.916Z,15.83
2019-05-16T02:13:19.571Z,11.63
2019-05-16T02:15:50.406Z,11.80
2019-05-16T02:18:25.576Z,16.97
2019-05-16T02:20:55.108Z,12.73
2019-05-16T02:23:24.649Z,14.60
2019-05-16T02:25:54.171Z,17.07
2019-05-16T02:28:30.359Z,17.05
2019-05-16T02:30:55.246Z,13.03
2019-05-16T02:33:24.758Z,15.10
2019-05-16T02:35:55.814Z,13.07
2019-05-16T02:38:25.680Z,15.70
2019-05-16T02:40:55.611Z,15.80
2019-05-16T02:43:26.305Z,13.43
2019-05-16T02:45:56.296Z,13.80
2019-05-16T02:48:26.166Z,16.33
2019-05-16T02:50:55.745Z,17.93
2019-05-16T02:53:25.392Z,15.77
2019-05-16T02:55:55.073Z,20.85
2019-05-16T02:58:24.542Z,19.37
2019-05-16T03:00:54.278Z,19.17
2019-05-16T03:03:23.956Z,15.63
2019-05-16T03:05:54.345Z,19.77
2019-05-16T03:08:24.197Z,16.23
2019-05-16T03:10:54.189Z,14.23
2019-05-16T03:13:25.513Z,19.73
2019-05-16T03:15:55.597Z,17.53
2019-05-16T03:18:26.901Z,16.73
2019-05-16T03:21:00.589Z,16.67
2019-05-16T03:23:30.879Z,14.17
2019-05-16T03:26:01.180Z,18.27
2019-05-16T03:28:30.905Z,15.33
2019-05-16T03:31:05.118Z,17.70
2019-05-16T03:33:40.235Z,19.03
2019-05-16T03:36:04.515Z,20.02
2019-05-16T03:38:34.077Z,18.77
2019-05-16T03:41:03.587Z,16.90
2019-05-16T03:43:33.094Z,16.47
2019-05-16T03:46:02.931Z,23.20
2019-05-16T03:48:32.441Z,15.60
2019-05-16T03:51:01.961Z,16.07
2019-05-16T03:53:32.014Z,16.87
2019-05-16T03:56:02.052Z,17.17
2019-05-16T03:58:31.827Z,19.40
2019-05-16T04:01:02.447Z,15.83
2019-05-16T04:03:33.414Z,15.70
2019-05-16T04:06:04.633Z,22.47
2019-05-16T04:08:34.165Z,19.30
2019-05-16T04:11:03.747Z,21.77
2019-05-16T04:13:33.328Z,23.13
2019-05-16T04:16:02.838Z,15.93
2019-05-16T04:18:32.377Z,16.03
2019-05-16T04:21:01.891Z,16.33
2019-05-16T04:23:31.793Z,16.33
2019-05-16T04:26:01.551Z,23.30
2019-05-16T04:28:32.077Z,14.00
2019-05-16T04:31:02.421Z,22.87
2019-05-16T04:33:32.135Z,13.93
2019-05-16T04:36:01.698Z,18.40
2019-05-16T04:38:40.192Z,15.27
2019-05-16T04:41:02.538Z,16.33
2019-05-16T04:43:32.030Z,12.63
2019-05-16T04:46:01.831Z,13.67
2019-05-16T04:48:31.610Z,15.50
2019-05-16T04:51:01.665Z,15.40
2019-05-16T04:53:31.974Z,13.63
2019-05-16T04:56:02.114Z,13.67
2019-05-16T04:58:32.762Z,17.40
2019-05-16T05:01:02.289Z,13.40
2019-05-16T05:03:31.923Z,19.57
2019-05-16T05:06:01.805Z,11.87
2019-05-16T05:08:48.693Z,14.50
2019-05-16T05:11:02.707Z,10.70
2019-05-16T05:13:32.197Z,13.20
2019-05-16T05:16:01.791Z,10.47
2019-05-16T05:18:31.356Z,13.37
2019-05-16T05:21:01.231Z,10.97
2019-05-16T05:23:30.771Z,15.80
2019-05-16T05:26:00.560Z,12.97
2019-05-16T05:28:30.181Z,12.00
2019-05-16T05:31:00.035Z,11.00
2019-05-16T05:33:30.411Z,12.90
2019-05-16T05:36:01.104Z,11.50
2019-05-16T05:38:31.237Z,10.87
2019-05-16T05:41:01.610Z,12.50
2019-05-16T05:43:31.104Z,13.67
2019-05-16T05:46:01.005Z,14.60
2019-05-16T05:48:31.010Z,15.13
2019-05-16T05:51:00.703Z,14.77
2019-05-16T05:53:30.384Z,11.80
2019-05-16T05:56:00.678Z,11.00
2019-05-16T05:58:31.000Z,9.60
2019-05-16T06:01:00.973Z,13.17
2019-05-16T06:03:32.800Z,14.73
2019-05-16T06:06:01.657Z,10.57
2019-05-16T06:08:31.168Z,11.47
2019-05-16T06:11:00.904Z,12.67
2019-05-16T06:13:31.165Z,9.80
2019-05-16T06:16:00.759Z,9.90
2019-05-16T06:18:30.690Z,10.77
2019-05-16T06:21:00.702Z,13.70
2019-05-16T06:23:31.135Z,10.97
2019-05-16T06:26:01.112Z,12.63
2019-05-16T06:28:31.038Z,10.93
2019-05-16T06:31:01.770Z,16.20
2019-05-16T06:33:32.070Z,14.70
2019-05-16T06:36:01.742Z,13.53
2019-05-16T06:38:31.214Z,13.90
2019-05-16T06:41:00.760Z,10.67
2019-05-16T06:43:30.416Z,10.50
2019-05-16T06:46:00.560Z,10.72
2019-05-16T06:48:30.690Z,13.70
2019-05-16T06:51:02.863Z,13.93
2019-05-16T06:53:31.477Z,17.20
2019-05-16T06:56:01.036Z,17.20
2019-05-16T06:58:30.562Z,11.63
2019-05-16T07:01:03.437Z,12.10
2019-05-16T07:03:31.264Z,12.00
2019-05-16T07:06:01.095Z,11.77
2019-05-16T07:08:31.225Z,11.40
2019-05-16T07:11:00.870Z,12.93
2019-05-16T07:13:30.619Z,14.17
2019-05-16T07:16:00.695Z,10.77
2019-05-16T07:18:31.178Z,12.33
2019-05-16T07:21:00.945Z,13.33
2019-05-16T07:23:30.498Z,13.77
2019-05-16T07:26:00.880Z,12.33
2019-05-16T07:28:30.653Z,12.10
2019-05-16T07:31:06.545Z,13.23
2019-05-16T07:33:31.466Z,12.80
2019-05-16T07:36:00.891Z,14.10
2019-05-16T07:38:31.110Z,14.47
2019-05-16T07:41:00.707Z,14.67
2019-05-16T07:43:31.149Z,14.33
2019-05-16T07:46:00.813Z,13.07
2019-05-16T07:48:31.539Z,14.90
2019-05-16T07:51:01.671Z,15.27
2019-05-16T07:53:33.223Z,13.37
2019-05-16T07:56:02.854Z,14.23
2019-05-16T07:58:32.388Z,15.80
2019-05-16T08:01:07.566Z,16.70
2019-05-16T08:03:33.403Z,16.85
2019-05-16T08:06:02.981Z,17.48
2019-05-16T08:08:32.592Z,16.93
2019-05-16T08:11:02.131Z,16.57
2019-05-16T08:13:31.620Z,16.87
2019-05-16T08:16:01.530Z,17.07
2019-05-16T08:18:31.321Z,17.97
2019-05-16T08:21:01.558Z,15.20
2019-05-16T08:23:31.165Z,15.03
2019-05-16T08:26:01.378Z,15.23
2019-05-16T08:28:31.964Z,15.43
2019-05-16T08:31:01.568Z,17.93
2019-05-16T08:33:32.320Z,14.97
2019-05-16T08:38:33.577Z,17.45
2019-05-16T08:41:11.539Z,15.73
2019-05-16T08:43:34.431Z,17.23
2019-05-16T08:46:04.045Z,18.03
2019-05-16T08:48:35.346Z,15.33
2019-05-16T08:51:05.105Z,16.60
2019-05-16T08:53:34.696Z,19.73
2019-05-16T08:56:04.420Z,16.57
2019-05-16T08:58:33.924Z,21.73
2019-05-16T09:01:03.407Z,19.87
2019-05-16T09:03:33.087Z,20.10
2019-05-16T09:06:03.382Z,18.83
2019-05-16T09:08:33.251Z,18.40
2019-05-16T09:10:35.642Z,18.30
2019-05-16T09:11:26.639Z,21.47
2019-05-16T09:13:36.834Z,20.70
2019-05-16T09:16:07.809Z,23.60
2019-05-16T09:18:41.271Z,20.68
2019-05-16T09:21:07.844Z,20.80
2019-05-16T09:23:38.634Z,22.17
2019-05-16T09:26:08.100Z,20.65
2019-05-16T09:28:39.111Z,20.25
2019-05-16T09:31:09.019Z,20.65
2019-05-16T09:33:39.580Z,19.82
2019-05-16T09:36:09.078Z,19.77
2019-05-16T09:38:38.630Z,18.37
2019-05-16T09:41:08.408Z,18.83
2019-05-16T09:43:39.167Z,19.70
2019-05-16T09:46:08.885Z,17.00
2019-05-16T09:48:40.060Z,20.50
2019-05-16T09:51:09.613Z,17.27
2019-05-16T09:53:39.100Z,16.13
2019-05-16T09:56:09.106Z,16.60
2019-05-16T09:58:38.627Z,14.47
2019-05-16T10:01:08.201Z,14.60
2019-05-16T10:03:37.743Z,15.73
2019-05-16T10:06:07.932Z,16.50
2019-05-16T10:08:37.820Z,17.10
2019-05-16T10:11:07.588Z,17.87
2019-05-16T10:13:37.782Z,20.27
2019-05-16T10:16:07.528Z,20.57
2019-05-16T10:18:37.191Z,17.80
2019-05-16T10:21:08.020Z,16.03
2019-05-16T10:23:38.744Z,14.70
2019-05-16T10:26:08.304Z,18.33
2019-05-16T10:28:38.616Z,20.13
2019-05-16T10:31:08.236Z,22.03
2019-05-16T10:33:39.037Z,19.37
2019-05-16T10:36:08.952Z,19.67
2019-05-16T10:38:38.593Z,18.67
2019-05-16T10:41:08.070Z,17.20
2019-05-16T10:43:37.641Z,22.63
2019-05-16T10:46:07.196Z,17.97
2019-05-16T10:48:37.631Z,22.80
2019-05-16T10:51:07.930Z,20.93
2019-05-16T10:54:00.555Z,20.13
2019-05-16T10:56:08.785Z,19.87
2019-05-16T10:59:00.768Z,22.47
2019-05-16T11:01:24.514Z,20.17
2019-05-16T11:03:40.724Z,23.90
2019-05-16T11:06:24.762Z,20.73
2019-05-16T11:08:41.684Z,19.00
2019-05-16T11:11:11.202Z,20.40
2019-05-16T11:13:40.706Z,21.37
2019-05-16T11:16:10.254Z,16.83
2019-05-16T11:18:39.756Z,20.17
2019-05-16T11:21:09.244Z,18.53
2019-05-16T11:23:39.818Z,18.60
2019-05-16T11:26:09.300Z,19.03
2019-05-16T11:28:38.802Z,20.43
2019-05-16T11:31:08.407Z,18.63
2019-05-16T11:33:37.957Z,23.47
2019-05-16T11:36:10.274Z,22.30
2019-05-16T11:38:38.715Z,18.80
2019-05-16T11:41:08.285Z,18.50
2019-05-16T11:43:37.843Z,20.53
2019-05-16T11:46:07.655Z,21.57
2019-05-16T11:48:37.903Z,19.47
2019-05-16T11:51:07.531Z,20.73
2019-05-16T11:53:37.894Z,20.20
2019-05-16T11:56:08.475Z,22.17
2019-05-16T11:58:38.220Z,17.00
2019-05-16T12:01:08.018Z,19.13
2019-05-16T12:03:37.698Z,18.37
2019-05-16T12:06:10.543Z,20.53
2019-05-16T12:08:38.832Z,19.00
2019-05-16T12:11:08.756Z,20.47
2019-05-16T12:13:38.449Z,23.63
2019-05-16T12:16:08.151Z,19.47
2019-05-16T12:18:37.903Z,18.50
2019-05-16T12:21:07.920Z,23.23
2019-05-16T12:23:37.716Z,19.30
2019-05-16T12:26:07.983Z,22.37
2019-05-16T12:28:37.616Z,20.12
2019-05-16T12:31:07.428Z,21.70
2019-05-16T12:33:37.663Z,20.87
2019-05-16T12:36:07.871Z,19.32
2019-05-16T12:38:38.085Z,19.30
2019-05-16T12:41:08.141Z,18.80
2019-05-16T12:43:48.679Z,20.23
2019-05-16T12:46:09.137Z,19.60
2019-05-16T12:48:38.636Z,18.33
2019-05-16T12:51:09.142Z,21.47
2019-05-16T12:53:38.720Z,21.37
2019-05-16T12:56:09.853Z,21.10
2019-05-16T12:58:42.267Z,21.73
2019-05-16T13:01:10.726Z,20.20
2019-05-16T13:03:40.330Z,20.97
2019-05-16T13:06:09.858Z,19.42
2019-05-16T13:08:39.450Z,18.67
2019-05-16T13:11:08.969Z,18.20
2019-05-16T13:13:38.804Z,19.00
2019-05-16T13:16:09.142Z,19.97
2019-05-16T13:18:38.648Z,18.20
2019-05-16T13:21:08.416Z,19.40
2019-05-16T13:23:38.688Z,19.27
2019-05-16T13:26:09.215Z,19.30
2019-05-16T13:28:38.782Z,19.43
2019-05-16T13:31:09.970Z,23.70
2019-05-16T13:33:39.501Z,18.73
2019-05-16T13:36:09.171Z,18.23
2019-05-16T13:38:38.896Z,19.77
2019-05-16T13:41:08.446Z,18.07
2019-05-16T13:43:37.969Z,19.47
2019-05-16T13:46:07.843Z,20.40
2019-05-16T13:48:37.892Z,20.90
2019-05-16T13:51:14.698Z,19.17
2019-05-16T13:53:39.796Z,19.67
2019-05-16T13:56:13.150Z,19.90
2019-05-16T13:58:40.771Z,17.67
2019-05-16T14:01:10.346Z,18.90
2019-05-16T14:03:39.931Z,18.83
2019-05-16T14:06:09.521Z,20.43
2019-05-16T14:08:39.060Z,18.27
2019-05-16T14:11:10.641Z,17.30
2019-05-16T14:13:39.813Z,17.77
2019-05-16T14:16:09.306Z,17.10
2019-05-16T14:18:38.910Z,17.13
2019-05-16T14:21:08.406Z,18.27
2019-05-16T14:23:38.382Z,17.40
2019-05-16T14:26:08.026Z,17.30
2019-05-16T14:28:37.856Z,18.40
2019-05-16T14:31:07.742Z,18.20
2019-05-16T14:33:37.362Z,16.93
2019-05-16T14:36:07.477Z,16.40
2019-05-16T14:38:37.885Z,16.93
2019-05-16T14:41:08.159Z,17.80
2019-05-16T14:43:37.946Z,17.23
2019-05-16T14:46:09.723Z,17.97
2019-05-16T14:48:38.807Z,18.03
2019-05-16T14:51:08.504Z,17.77
2019-05-16T14:53:38.159Z,18.10
2019-05-16T14:56:07.673Z,17.90
2019-05-16T14:58:37.989Z,17.57
2019-05-16T15:01:07.892Z,20.60
2019-05-16T15:03:37.405Z,18.10
2019-05-16T15:06:08.682Z,18.03
2019-05-16T15:08:38.214Z,17.60
2019-05-16T15:11:07.881Z,21.70
2019-05-16T15:13:37.425Z,17.73
2019-05-16T15:16:07.679Z,16.73
2019-05-16T15:18:38.437Z,16.50
2019-05-16T15:21:09.084Z,17.33
2019-05-16T15:23:38.813Z,17.10
2019-05-16T15:26:09.461Z,19.10
2019-05-16T15:28:39.120Z,21.83
2019-05-16T15:31:08.936Z,18.03
2019-05-16T15:33:38.525Z,17.77
2019-05-16T15:36:08.798Z,17.10
2019-05-16T15:38:38.405Z,17.43
2019-05-16T15:41:08.533Z,17.50
2019-05-16T15:43:39.529Z,17.10
2019-05-16T15:46:09.130Z,17.57
2019-05-16T15:48:38.766Z,16.57
2019-05-16T15:51:09.137Z,17.10
2019-05-16T15:53:44.052Z,19.52
2019-05-16T15:56:17.650Z,16.47
2019-05-16T15:58:46.742Z,16.47
2019-05-16T16:01:18.574Z,18.00
2019-05-16T16:03:47.868Z,17.17
2019-05-16T16:06:17.904Z,16.80
2019-05-16T16:08:47.746Z,16.53
2019-05-16T16:11:17.436Z,16.40
2019-05-16T16:13:48.491Z,16.40
2019-05-16T16:16:18.113Z,16.63
2019-05-16T16:18:47.637Z,16.10
2019-05-16T16:21:17.237Z,16.43
2019-05-16T16:23:47.388Z,15.33
2019-05-16T16:26:17.728Z,16.47
2019-05-16T16:28:47.562Z,15.13
2019-05-16T16:31:17.237Z,16.37
2019-05-16T16:33:46.812Z,15.90
2019-05-16T16:36:17.105Z,19.00
2019-05-16T16:38:47.646Z,16.10
2019-05-16T16:41:17.499Z,16.83
2019-05-16T16:43:47.698Z,18.47
2019-05-16T16:46:17.460Z,18.67
2019-05-16T16:48:47.114Z,17.13
2019-05-16T16:51:17.676Z,16.43
2019-05-16T16:53:47.814Z,17.97
2019-05-16T16:56:17.353Z,16.90
2019-05-16T16:58:47.011Z,17.40
2019-05-16T17:01:17.350Z,18.03
2019-05-16T17:03:47.194Z,16.10
2019-05-16T17:06:17.689Z,16.13
2019-05-16T17:08:47.619Z,16.27
2019-05-16T17:11:17.275Z,17.97
2019-05-16T17:13:47.240Z,14.97
2019-05-16T17:16:25.760Z,16.93
2019-05-16T17:18:48.178Z,16.13
2019-05-16T17:21:18.201Z,15.53
2019-05-16T17:23:47.761Z,14.70
2019-05-16T17:26:17.317Z,15.53
2019-05-16T17:28:46.915Z,15.77
2019-05-16T17:31:16.937Z,14.37
2019-05-16T17:33:49.890Z,14.97
2019-05-16T17:36:19.349Z,14.17
2019-05-16T17:38:48.893Z,16.33
2019-05-16T17:41:18.469Z,14.93
2019-05-16T17:43:48.075Z,14.97
2019-05-16T17:46:17.590Z,15.67
2019-05-16T17:48:47.103Z,15.30
2019-05-16T17:51:16.996Z,14.63
2019-05-16T17:53:46.464Z,15.13
2019-05-16T17:56:17.051Z,15.07
2019-05-16T17:58:46.896Z,15.13
2019-05-16T18:01:17.132Z,15.67
2019-05-16T18:03:46.821Z,14.50
2019-05-16T18:06:16.984Z,15.90
2019-05-16T18:08:47.006Z,15.80
2019-05-16T18:11:17.734Z,16.40
2019-05-16T18:13:47.492Z,16.17
2019-05-16T18:16:18.056Z,15.33
2019-05-16T18:18:47.939Z,16.57
2019-05-16T18:21:17.472Z,16.85
2019-05-16T18:23:47.304Z,14.87
2019-05-16T18:26:17.356Z,16.50
2019-05-16T18:28:46.909Z,15.58
2019-05-16T18:31:17.293Z,15.45
2019-05-16T18:33:47.190Z,16.32
2019-05-16T18:36:17.069Z,15.95
2019-05-16T18:38:47.561Z,16.45
2019-05-16T18:41:17.038Z,16.07
2019-05-16T18:43:47.201Z,15.00
2019-05-16T18:46:17.026Z,15.32
2019-05-16T18:48:47.159Z,16.65
2019-05-16T18:51:16.846Z,18.98
2019-05-16T18:53:47.447Z,17.07
2019-05-16T18:56:17.074Z,19.32
2019-05-16T18:58:46.874Z,18.15
2019-05-16T19:01:17.635Z,19.37
2019-05-16T19:03:49.048Z,19.42
2019-05-16T19:06:18.761Z,18.50
2019-05-16T19:08:48.300Z,18.90
2019-05-16T19:11:17.851Z,19.73
2019-05-16T19:13:47.597Z,20.17
2019-05-16T19:16:17.185Z,20.35
2019-05-16T19:18:46.779Z,21.33
2019-05-16T19:21:16.825Z,19.98
2019-05-16T19:23:46.454Z,20.83
2019-05-16T19:26:16.686Z,19.93
2019-05-16T19:28:46.777Z,20.95
2019-05-16T19:31:17.128Z,19.90
2019-05-16T19:33:48.890Z,20.57
2019-05-16T19:36:19.230Z,18.90
2019-05-16T19:38:48.776Z,20.17
2019-05-16T19:41:18.248Z,18.93
2019-05-16T19:43:47.858Z,20.93
2019-05-16T19:46:17.352Z,18.50
2019-05-16T19:48:46.935Z,21.87
2019-05-16T19:51:16.476Z,20.33
2019-05-16T19:53:47.099Z,29.67
2019-05-16T19:56:17.783Z,20.77
2019-05-16T19:58:47.301Z,19.37
2019-05-16T20:01:16.927Z,23.10
2019-05-16T20:03:48.228Z,21.17
2019-05-16T20:06:17.726Z,25.67
2019-05-16T20:08:47.450Z,30.83
2019-05-16T20:11:17.004Z,21.23
2019-05-16T20:13:47.404Z,21.33
2019-05-16T20:16:18.476Z,22.03
2019-05-16T20:18:48.153Z,24.57
2019-05-16T20:21:18.948Z,21.47
2019-05-16T20:23:48.474Z,19.50
2019-05-16T20:26:19.645Z,24.10
2019-05-16T20:28:50.424Z,22.67
2019-05-16T20:31:20.021Z,24.53
2019-05-16T20:33:51.192Z,20.97
2019-05-16T20:36:20.675Z,21.23
2019-05-16T20:38:51.121Z,23.17
2019-05-16T20:41:20.602Z,20.37
2019-05-16T20:43:50.147Z,26.33
2019-05-16T20:46:20.702Z,21.00
2019-05-16T20:48:50.210Z,22.63
2019-05-16T20:51:21.265Z,24.23
2019-05-16T20:53:50.765Z,23.13
2019-05-16T20:56:20.539Z,21.90
2019-05-16T20:58:51.868Z,25.27
2019-05-16T21:01:21.376Z,20.80
2019-05-16T21:03:52.996Z,22.80
2019-05-16T21:06:22.466Z,27.90
2019-05-16T21:08:51.972Z,30.57
2019-05-16T21:11:21.442Z,34.43
2019-05-16T21:13:52.622Z,35.77
2019-05-16T21:16:22.204Z,31.63
2019-05-16T21:18:51.670Z,30.47
2019-05-16T21:21:21.238Z,28.73
2019-05-16T21:23:50.791Z,25.03
2019-05-16T21:26:20.374Z,27.23
2019-05-16T21:28:49.986Z,28.63
2019-05-16T21:31:19.669Z,27.77
2019-05-16T21:33:49.261Z,27.23
2019-05-16T21:36:18.998Z,25.70
2019-05-16T21:38:54.353Z,28.73
2019-05-16T21:41:23.861Z,26.93
2019-05-16T21:43:53.458Z,27.47
2019-05-16T21:46:23.039Z,29.90
2019-05-16T21:48:56.684Z,28.97
2019-05-16T21:51:26.836Z,29.87
2019-05-16T21:53:56.487Z,26.73
2019-05-16T21:56:26.625Z,27.87
2019-05-16T21:58:57.400Z,30.27
2019-05-16T22:01:27.349Z,29.40
2019-05-16T22:03:56.902Z,27.23
2019-05-16T22:06:26.388Z,29.77
2019-05-16T22:08:57.354Z,27.50
2019-05-16T22:11:26.960Z,28.80
2019-05-16T22:13:57.075Z,29.73
2019-05-16T22:16:27.880Z,29.67
2019-05-16T22:18:57.525Z,28.77
2019-05-16T22:21:27.179Z,28.33
2019-05-16T22:23:57.168Z,31.43
2019-05-16T22:26:27.142Z,27.63
2019-05-16T22:28:57.547Z,31.10
2019-05-16T22:31:27.243Z,32.13
2019-05-16T22:33:58.416Z,34.33
2019-05-16T22:36:28.214Z,30.40
2019-05-16T22:38:59.659Z,32.00
2019-05-16T22:41:29.037Z,32.93
2019-05-16T22:43:58.559Z,29.83
2019-05-16T22:46:29.389Z,33.37
2019-05-16T22:48:58.947Z,29.13
2019-05-16T22:51:28.457Z,31.57
2019-05-16T22:53:58.775Z,29.97
2019-05-16T22:56:28.321Z,30.57
2019-05-16T22:58:57.869Z,27.83
2019-05-16T23:01:27.934Z,35.97
2019-05-16T23:03:57.509Z,32.97
2019-05-16T23:06:27.076Z,31.50
2019-05-16T23:08:56.545Z,32.03
2019-05-16T23:11:27.011Z,33.23
2019-05-16T23:13:56.900Z,31.93
2019-05-16T23:16:26.830Z,34.43
2019-05-16T23:18:57.098Z,32.40
2019-05-16T23:21:27.665Z,33.60
2019-05-16T23:23:57.319Z,30.77
2019-05-16T23:26:28.454Z,32.47
2019-05-16T23:28:57.951Z,30.57
2019-05-16T23:31:27.491Z,33.97
2019-05-16T23:33:56.975Z,35.80
2019-05-16T23:36:26.648Z,35.37
2019-05-16T23:38:56.858Z,32.30
2019-05-16T23:41:27.410Z,33.90
2019-05-16T23:43:57.082Z,33.30
2019-05-16T23:46:26.609Z,38.40
2019-05-16T23:48:56.684Z,35.30
2019-05-16T23:51:27.640Z,37.77
2019-05-16T23:53:57.283Z,41.47
2019-05-16T23:56:27.335Z,35.80
2019-05-16T23:58:57.156Z,40.50
